createdAt,value
2023-05-24T00:00:12.758Z,5.40
2023-05-24T00:02:42.012Z,6.07
2023-05-24T00:05:09.973Z,4.80
2023-05-24T00:07:37.514Z,5.13
2023-05-24T00:10:04.950Z,6.07
2023-05-24T00:12:31.582Z,5.68
2023-05-24T00:14:58.455Z,5.15
2023-05-24T00:17:25.171Z,4.63
2023-05-24T00:19:52.545Z,6.50
2023-05-24T00:22:21.016Z,4.75
2023-05-24T00:24:48.429Z,5.05
2023-05-24T00:27:15.487Z,5.90
2023-05-24T00:29:42.090Z,6.20
2023-05-24T00:32:08.658Z,4.43
2023-05-24T00:34:36.873Z,6.60
2023-05-24T00:37:04.179Z,4.70
2023-05-24T00:39:30.773Z,4.15
2023-05-24T00:41:57.204Z,5.45
2023-05-24T00:44:23.684Z,4.88
2023-05-24T00:46:50.226Z,4.80
2023-05-24T00:49:16.944Z,5.78
2023-05-24T00:51:43.388Z,5.40
2023-05-24T00:54:09.797Z,6.20
2023-05-24T00:56:36.304Z,4.95
2023-05-24T00:59:02.829Z,5.88
2023-05-24T01:01:31.149Z,4.60
2023-05-24T01:03:59.554Z,4.90
2023-05-24T01:06:28.056Z,4.60
2023-05-24T01:09:06.598Z,4.72
2023-05-24T01:11:44.936Z,4.78
2023-05-24T01:14:26.495Z,4.88
2023-05-24T01:17:27.577Z,4.60
2023-05-24T01:20:06.670Z,5.15
2023-05-24T01:22:39.728Z,4.50
2023-05-24T01:25:18.152Z,5.03
2023-05-24T01:27:44.773Z,4.63
2023-05-24T01:30:12.112Z,5.10
2023-05-24T01:32:38.891Z,4.43
2023-05-24T01:35:06.134Z,4.40
2023-05-24T01:37:32.548Z,4.10
2023-05-24T01:40:00.061Z,4.03
2023-05-24T01:42:32.963Z,5.20
2023-05-24T01:45:06.675Z,4.68
2023-05-24T01:47:51.951Z,5.10
2023-05-24T01:50:38.950Z,5.65
2023-05-24T01:53:09.448Z,4.80
2023-05-24T01:55:36.941Z,4.85
2023-05-24T01:58:04.833Z,5.22
2023-05-24T02:00:31.888Z,4.60
2023-05-24T02:02:58.638Z,4.80
2023-05-24T02:05:25.196Z,5.72
2023-05-24T02:07:51.626Z,3.85
2023-05-24T02:10:18.067Z,4.28
2023-05-24T02:12:44.813Z,4.70
2023-05-24T02:15:11.512Z,4.40
2023-05-24T02:17:37.981Z,6.38
2023-05-24T02:20:04.931Z,4.57
2023-05-24T02:22:31.445Z,5.03
2023-05-24T02:24:57.908Z,5.22
2023-05-24T02:27:24.336Z,5.90
2023-05-24T02:29:50.751Z,4.80
2023-05-24T02:32:17.294Z,4.65
2023-05-24T02:34:44.222Z,5.15
2023-05-24T02:37:14.854Z,5.65
2023-05-24T02:39:42.116Z,4.50
2023-05-24T02:42:09.025Z,4.00
2023-05-24T02:44:35.565Z,5.30
2023-05-24T02:52:09.857Z,4.78
2023-05-24T02:54:37.033Z,4.80
2023-05-24T02:57:06.551Z,5.07
2023-05-24T02:59:33.619Z,4.38
2023-05-24T03:02:00.550Z,5.78
2023-05-24T03:04:27.125Z,6.75
2023-05-24T03:06:54.562Z,4.40
2023-05-24T03:09:21.440Z,5.35
2023-05-24T03:11:48.716Z,4.35
2023-05-24T03:14:17.313Z,5.00
2023-05-24T03:16:43.790Z,4.50
2023-05-24T03:19:10.448Z,5.05
2023-05-24T03:21:37.578Z,4.75
2023-05-24T03:24:04.640Z,9.35
2023-05-24T03:26:31.589Z,6.13
2023-05-24T03:28:58.047Z,5.03
2023-05-24T03:31:30.743Z,5.10
2023-05-24T03:33:57.925Z,5.30
2023-05-24T03:36:26.172Z,5.57
2023-05-24T03:38:52.962Z,4.85
2023-05-24T03:41:20.363Z,6.55
2023-05-24T03:43:46.832Z,4.55
2023-05-24T03:46:16.175Z,5.72
2023-05-24T03:48:43.744Z,5.05
2023-05-24T03:51:10.149Z,5.47
2023-05-24T03:53:36.653Z,5.68
2023-05-24T03:56:03.114Z,5.10
2023-05-24T03:58:29.540Z,5.38
2023-05-24T04:00:55.954Z,6.03
2023-05-24T04:03:22.814Z,5.00
2023-05-24T04:05:49.395Z,5.63
2023-05-24T04:08:16.394Z,5.15
2023-05-24T04:10:43.242Z,6.38
2023-05-24T04:13:11.430Z,5.57
2023-05-24T04:15:38.085Z,5.07
2023-05-24T04:18:05.280Z,5.82
2023-05-24T04:20:34.134Z,4.80
2023-05-24T04:23:00.777Z,5.22
2023-05-24T04:25:27.591Z,6.13
2023-05-24T04:27:54.414Z,5.07
2023-05-24T04:30:21.519Z,5.50
2023-05-24T04:32:48.520Z,5.38
2023-05-24T04:35:16.872Z,6.50
2023-05-24T04:37:44.547Z,5.80
2023-05-24T04:40:11.756Z,5.47
2023-05-24T04:42:38.438Z,5.18
2023-05-24T04:45:05.602Z,5.30
2023-05-24T04:47:32.167Z,5.70
2023-05-24T04:49:58.966Z,5.60
2023-05-24T04:52:25.657Z,7.18
2023-05-24T04:54:52.816Z,5.75
2023-05-24T04:57:19.305Z,5.25
2023-05-24T04:59:45.838Z,5.15
2023-05-24T05:02:12.415Z,6.30
2023-05-24T05:04:38.884Z,7.47
2023-05-24T05:07:05.667Z,6.88
2023-05-24T05:09:32.095Z,6.13
2023-05-24T05:11:58.660Z,5.72
2023-05-24T05:14:25.429Z,6.53
2023-05-24T05:16:51.968Z,6.20
2023-05-24T05:19:18.813Z,5.20
2023-05-24T05:21:45.245Z,6.10
2023-05-24T05:24:11.719Z,8.05
2023-05-24T05:26:38.199Z,6.32
2023-05-24T05:29:04.610Z,6.75
2023-05-24T05:31:31.283Z,6.10
2023-05-24T05:33:57.775Z,6.20
2023-05-24T05:36:24.199Z,6.25
2023-05-24T05:38:50.708Z,6.10
2023-05-24T05:41:17.650Z,7.00
2023-05-24T05:43:44.060Z,6.43
2023-05-24T05:46:11.269Z,6.55
2023-05-24T05:48:37.895Z,6.80
2023-05-24T05:51:04.319Z,6.78
2023-05-24T05:53:33.907Z,7.20
2023-05-24T05:56:00.301Z,6.80
2023-05-24T05:58:26.757Z,5.82
2023-05-24T06:00:53.135Z,7.20
2023-05-24T06:03:19.686Z,7.97
2023-05-24T06:05:46.424Z,7.85
2023-05-24T06:08:12.821Z,8.05
2023-05-24T06:10:39.231Z,6.60
2023-05-24T06:13:05.692Z,6.25
2023-05-24T06:15:33.323Z,6.38
2023-05-24T06:18:01.293Z,7.30
2023-05-24T06:20:27.764Z,6.30
2023-05-24T06:22:55.335Z,6.85
2023-05-24T06:25:24.069Z,7.68
2023-05-24T06:27:51.658Z,6.80
2023-05-24T06:30:18.557Z,6.53
2023-05-24T06:32:45.100Z,7.10
2023-05-24T06:35:11.614Z,7.47
2023-05-24T06:37:38.630Z,8.20
2023-05-24T06:40:11.546Z,8.45
2023-05-24T06:42:39.113Z,8.07
2023-05-24T06:45:06.032Z,7.30
2023-05-24T06:47:32.615Z,8.02
2023-05-24T06:49:59.202Z,7.97
2023-05-24T06:52:25.873Z,9.07
2023-05-24T06:54:52.672Z,7.72
2023-05-24T06:57:19.068Z,6.80
2023-05-24T06:59:45.528Z,8.10
2023-05-24T07:02:11.962Z,7.20
2023-05-24T07:04:41.269Z,8.65
2023-05-24T07:07:09.054Z,7.53
2023-05-24T07:09:35.788Z,8.18
2023-05-24T07:12:02.545Z,9.32
2023-05-24T07:14:28.991Z,7.75
2023-05-24T07:16:57.496Z,8.55
2023-05-24T07:19:28.959Z,8.25
2023-05-24T07:21:56.722Z,7.35
2023-05-24T07:24:24.093Z,8.57
2023-05-24T07:26:51.676Z,10.40
2023-05-24T07:29:18.123Z,8.20
2023-05-24T07:31:44.553Z,7.97
2023-05-24T07:34:11.145Z,8.32
